• Join FlightAware (Why Join?)
  • Login
  • US Flag 
04:36AM EDT


 

Airport Tracker/Info


-or-


 

Live Flight TrackerFlight Track Log ✈ N114WE ✈ 29-Jul-2013 ✈ KTME - KHQZ

Flight Track Log - Related Links

Times and Time Zones

All times are in EDT time to prevent confusion due to time zone crossing. See the N114WE flight status page for this flight to view local times or setup timezone preferences in your user account.

Time Position Orientation Groundspeed Altitude Reporting Facility
EDT Latitude Longitude Course Direction KTS MPH feet Rate Location/Type
07:57PM 29.8817 -95.9772 324° Northwest 152 175 3,900  Level Houston Center
07:57PM 29.9044 -95.9961 324° Northwest 146 168 4,400 660 Climbing Houston Center
07:59PM 29.9453 -96.0061 348° North 162 186 5,100 660 Climbing Houston Center
08:00PM 29.9900 -96.0153 350° North 154 177 5,800 600 Climbing Houston Center
08:01PM 30.0325 -96.0225 352° North 157 181 6,400 540 Climbing Houston Center
08:02PM 30.0772 -96.0294 352° North 152 175 7,000 480 Climbing Houston Center
08:03PM 30.1264 -96.0383 351° North 155 178 7,600 480 Climbing Houston Center
08:04PM 30.1711 -96.0456 352° North 155 178 8,200 420 Climbing Houston Center
08:05PM 30.2131 -96.0536 351° North 152 175 8,500 120 Climbing Houston Center
08:06PM 30.2672 -96.0622 352° North 167 192 8,500  Level Houston Center
08:07PM 30.3139 -96.0708 351° North 169 194 8,500  Level Houston Center
08:08PM 30.3608 -96.0792 351° North 168 193 8,500 -60 Level Houston Center
08:09PM 30.4067 -96.0867 352° North 166 191 8,400 -60 Descending Houston Center
08:10PM 30.4539 -96.0958 351° North 169 194 8,400  Level Houston Center
08:11PM 30.5008 -96.1033 352° North 169 194 8,400  Level Houston Center
08:12PM 30.5478 -96.1117 351° North 169 194 8,400  Level Houston Center
08:13PM 30.5942 -96.1219 349° North 169 194 8,400  Level Houston Center
08:14PM 30.6414 -96.1297 352° North 169 194 8,400  Level Houston Center
08:15PM 30.6967 -96.1392 352° North 170 196 8,400  Level Houston Center
08:16PM 30.7433 -96.1486 350° North 170 196 8,400  Level Houston Center
08:17PM 30.7917 -96.1567 352° North 174 200 8,400  Level Houston Center
08:18PM 30.8381 -96.1650 351° North 170 196 8,400  Level Houston Center
08:19PM 30.8844 -96.1742 350° North 169 194 8,400  Level Houston Center
08:20PM 30.9317 -96.1839 350° North 171 197 8,400  Level Houston Center
08:21PM 30.9789 -96.1919 352° North 171 197 8,400  Level Houston Center
08:22PM 31.0269 -96.2003 352° North 172 198 8,400  Level Houston Center
08:23PM 31.0806 -96.2111 350° North 167 192 8,400  Level Houston Center
08:25PM 31.1281 -96.2192 352° North 171 197 8,400  Level Houston Center
08:26PM 31.1753 -96.2286 350° North 170 196 8,400  Level Houston Center
08:27PM 31.2233 -96.2375 351° North 173 199 8,500  Climbing Houston Center
08:28PM 31.2700 -96.2458 351° North 169 194 8,500  Level Houston Center
08:29PM 31.3186 -96.2550 351° North 173 199 8,600  Climbing Houston Center
08:30PM 31.3639 -96.2644 350° North 169 194 8,500  Descending Houston Center
08:31PM 31.4108 -96.2731 351° North 169 194 8,600  Climbing Houston Center
08:32PM 31.4586 -96.2822 351° North 171 197 8,500  Descending Houston Center
08:33PM 31.5131 -96.2919 351° North 168 193 8,600  Climbing Houston Center
08:34PM 31.5597 -96.3011 350° North 167 192 8,600  Level Houston Center
08:35PM 31.6069 -96.3106 350° North 170 196 8,600  Level Houston Center
08:36PM 31.6528 -96.3181 352° North 167 192 8,700  Climbing Houston Center
08:37PM 31.6992 -96.3269 351° North 167 192 8,600 -60 Descending Houston Center
08:38PM 31.7469 -96.3361 351° North 170 196 8,600  Level Houston Center
08:39PM 31.7944 -96.3450 351° North 170 196 8,700 -60 Climbing Houston Center
08:40PM 31.8583 -96.3592 349° North 161 185 8,500 -240 Descending Fort Worth Center
08:41PM 31.9064 -96.3683 351° North 166 191 8,200 -360 Descending Fort Worth Center
08:42PM 31.9586 -96.3800 349° North 171 197 7,800 -480 Descending Fort Worth Center
08:43PM 32.0108 -96.3892 352° North 182 209 7,300 -540 Descending Fort Worth Center
08:44PM 32.0631 -96.3986 351° North 182 209 6,800 -480 Descending Fort Worth Center
08:45PM 32.1133 -96.4103 349° North 182 209 6,400 -480 Descending Fort Worth Center
08:46PM 32.1678 -96.4169 354° North 182 209 5,900 -540 Descending Fort Worth Center
08:47PM 32.2178 -96.4286 349° North 182 209 5,400 -540 Descending Fort Worth Center
08:48PM 32.2722 -96.4381 352° North 182 209 4,900 -540 Descending Fort Worth Center
08:49PM 32.3308 -96.4497 350° North 187 215 4,400 -540 Descending Fort Worth Center
08:50PM 32.3767 -96.4564 353° North 187 215 3,900 -480 Descending Fort Worth Center
08:51PM 32.4333 -96.4683 350° North 187 215 3,500 -540 Descending Fort Worth Center
08:52PM 32.4772 -96.4775 350° North 177 204 2,900 -540 Descending Fort Worth Center
08:53PM 32.5294 -96.4894 349° North 177 204 2,500 -420 Descending Fort Worth Center